createdAt,value
2022-11-25T00:03:04.105Z,7.00
2022-11-25T00:08:06.160Z,6.50
2022-11-25T00:13:07.877Z,8.23
2022-11-25T00:18:09.649Z,9.07
2022-11-25T00:23:11.668Z,9.40
2022-11-25T00:28:13.763Z,9.03
2022-11-25T00:33:15.455Z,8.80
2022-11-25T00:38:17.164Z,6.88
2022-11-25T00:43:37.240Z,8.73
2022-11-25T00:48:40.443Z,8.85
2022-11-25T00:53:42.150Z,8.88
2022-11-25T00:58:44.893Z,8.48
2022-11-25T01:03:50.069Z,9.25
2022-11-25T01:08:52.855Z,7.90
2022-11-25T01:14:00.963Z,9.25
2022-11-25T01:19:03.557Z,10.27
2022-11-25T01:24:06.512Z,9.07
2022-11-25T01:29:15.080Z,9.02
2022-11-25T01:34:21.061Z,10.82
2022-11-25T01:39:28.672Z,8.95
2022-11-25T01:44:36.506Z,8.95
2022-11-25T01:50:02.368Z,9.73
2022-11-25T01:55:10.914Z,8.38
2022-11-25T02:00:13.327Z,7.90
2022-11-25T02:05:33.899Z,9.38
2022-11-25T02:10:36.399Z,9.60
2022-11-25T02:15:38.154Z,8.93
2022-11-25T02:20:40.780Z,8.27
2022-11-25T02:30:50.247Z,8.20
2022-11-25T02:36:15.632Z,9.77
2022-11-25T02:41:25.285Z,6.75
2022-11-25T02:46:33.380Z,10.90
2022-11-25T02:51:38.863Z,9.90
2022-11-25T02:56:41.505Z,7.47
2022-11-25T03:06:45.733Z,9.32
2022-11-25T03:12:06.117Z,7.53
2022-11-25T03:17:07.864Z,7.28
2022-11-25T03:22:09.565Z,7.30
2022-11-25T03:27:11.301Z,8.68
2022-11-25T03:32:13.553Z,8.85
2022-11-25T03:37:16.300Z,8.73
2022-11-25T03:42:18.293Z,8.23
2022-11-25T03:47:20.207Z,7.60
2022-11-25T03:52:22.116Z,7.27
2022-11-25T03:57:24.830Z,9.27
2022-11-25T04:02:27.323Z,8.85
2022-11-25T04:12:48.587Z,7.72
2022-11-25T04:17:54.511Z,7.90
2022-11-25T04:22:56.308Z,7.03
2022-11-25T04:27:58.309Z,7.27
2022-11-25T04:33:05.671Z,8.40
2022-11-25T04:38:08.072Z,7.78
2022-11-25T04:43:12.309Z,8.05
2022-11-25T04:48:38.827Z,8.85
2022-11-25T04:53:40.618Z,7.13
2022-11-25T04:59:03.001Z,7.30
2022-11-25T05:04:05.369Z,7.28
2022-11-25T05:09:10.831Z,6.82
2022-11-25T05:14:14.500Z,7.43
2022-11-25T05:19:16.622Z,7.60
2022-11-25T05:24:18.552Z,7.22
2022-11-25T05:29:21.670Z,8.05
2022-11-25T05:39:27.898Z,6.22
2022-11-25T05:44:48.067Z,6.90
2022-11-25T05:49:49.843Z,6.60
2022-11-25T05:54:56.863Z,7.00
2022-11-25T05:59:59.224Z,7.30
2022-11-25T06:05:16.592Z,7.10
2022-11-25T06:10:19.884Z,6.20
2022-11-25T06:15:22.652Z,7.80
2022-11-25T06:20:27.243Z,7.22
2022-11-25T06:25:29.395Z,6.78
2022-11-25T06:35:50.492Z,6.65
2022-11-25T06:40:54.132Z,6.65
2022-11-25T06:46:12.006Z,7.30
2022-11-25T06:51:16.054Z,7.35
2022-11-25T06:56:28.282Z,6.85
2022-11-25T07:01:30.945Z,6.35
2022-11-25T07:06:33.475Z,6.63
2022-11-25T07:11:38.024Z,7.90
2022-11-25T07:16:43.721Z,10.18
2022-11-25T07:21:46.789Z,10.70
2022-11-25T07:26:48.447Z,9.55
2022-11-25T07:31:50.727Z,8.77
2022-11-25T07:36:52.429Z,9.20
2022-11-25T07:41:54.517Z,9.17
2022-11-25T07:46:56.194Z,12.77
2022-11-25T07:52:02.868Z,9.38
2022-11-25T07:57:04.610Z,9.73
2022-11-25T08:02:06.332Z,12.65
2022-11-25T08:07:08.116Z,11.60
2022-11-25T08:12:09.879Z,11.50
2022-11-25T08:17:12.083Z,13.50
2022-11-25T08:22:13.868Z,11.90
2022-11-25T08:27:15.664Z,12.70
2022-11-25T08:32:17.368Z,11.93
2022-11-25T08:37:19.081Z,14.35
2022-11-25T08:42:20.956Z,14.23
2022-11-25T08:47:23.252Z,10.40
2022-11-25T08:52:24.919Z,10.15
2022-11-25T08:57:26.652Z,7.50
2022-11-25T09:02:28.503Z,7.37
2022-11-25T09:07:30.983Z,7.80
2022-11-25T09:12:32.897Z,6.80
2022-11-25T09:17:37.275Z,7.43
2022-11-25T09:22:39.060Z,9.50
2022-11-25T09:27:41.235Z,10.15
2022-11-25T09:32:43.135Z,9.48
2022-11-25T09:37:45.028Z,8.77
2022-11-25T09:43:12.954Z,8.90
2022-11-25T09:48:47.599Z,8.45
2022-11-25T09:53:54.624Z,6.72
2022-11-25T09:58:56.564Z,7.03
2022-11-25T10:04:05.701Z,8.03
2022-11-25T10:09:22.879Z,8.60
2022-11-25T10:14:46.341Z,9.52
2022-11-25T10:19:59.142Z,9.30
2022-11-25T10:25:14.157Z,7.68
2022-11-25T10:30:23.790Z,8.07
2022-11-25T10:35:35.571Z,6.32
2022-11-25T10:40:37.511Z,6.30
2022-11-25T10:45:49.101Z,5.43
2022-11-25T10:51:07.946Z,5.25
2022-11-25T10:56:17.105Z,5.65
2022-11-25T11:01:25.241Z,4.90
2022-11-25T11:06:31.075Z,4.00
2022-11-25T11:11:33.158Z,3.47
2022-11-25T11:16:41.938Z,3.90
2022-11-25T11:21:45.000Z,3.40
2022-11-25T11:27:00.586Z,3.35
2022-11-25T11:32:19.872Z,2.90
2022-11-25T11:37:42.766Z,3.20
2022-11-25T11:43:14.733Z,2.80
2022-11-25T11:48:26.250Z,3.17
2022-11-25T11:53:28.208Z,3.25
2022-11-25T11:58:32.811Z,3.42
2022-11-25T12:03:53.038Z,4.00
2022-11-25T12:09:22.738Z,3.30
2022-11-25T12:14:39.141Z,3.50
2022-11-25T12:19:50.136Z,3.65
2022-11-25T12:25:14.234Z,3.25
2022-11-25T12:30:18.348Z,3.55
2022-11-25T12:35:31.201Z,3.50
2022-11-25T12:40:45.040Z,3.65
2022-11-25T12:45:51.811Z,3.90
2022-11-25T12:51:16.597Z,4.03
2022-11-25T12:56:27.727Z,3.95
2022-11-25T13:01:47.878Z,4.30
2022-11-25T13:07:08.659Z,4.20
2022-11-25T13:12:38.846Z,4.80
2022-11-25T13:17:43.262Z,4.20
2022-11-25T13:23:20.256Z,4.25
2022-11-25T13:28:36.554Z,4.50
2022-11-25T13:33:44.823Z,5.03
2022-11-25T13:38:49.732Z,5.30
2022-11-25T13:44:01.802Z,6.25
2022-11-25T13:49:07.229Z,7.07
2022-11-25T13:54:18.278Z,7.40
2022-11-25T13:59:34.284Z,8.13
2022-11-25T14:05:03.567Z,7.82
2022-11-25T14:10:20.233Z,8.30
2022-11-25T14:15:32.410Z,8.07
2022-11-25T14:20:48.000Z,8.17
2022-11-25T14:25:55.505Z,7.85
2022-11-25T14:31:03.944Z,8.02
2022-11-25T14:36:11.647Z,7.82
2022-11-25T14:41:19.763Z,8.07
2022-11-25T14:46:25.390Z,8.63
2022-11-25T14:51:33.675Z,9.35
2022-11-25T14:56:36.947Z,8.85
2022-11-25T15:01:40.114Z,9.27
2022-11-25T15:06:49.242Z,9.65
2022-11-25T15:11:58.004Z,10.48
2022-11-25T15:17:01.262Z,12.70
2022-11-25T15:27:28.717Z,10.60
2022-11-25T15:32:37.458Z,12.13
2022-11-25T15:37:39.169Z,14.35
2022-11-25T15:42:42.315Z,12.43
2022-11-25T15:47:44.990Z,12.50
2022-11-25T15:52:51.493Z,11.88
2022-11-25T15:57:54.425Z,12.05
2022-11-25T16:02:58.064Z,14.30
2022-11-25T16:08:03.326Z,13.02
2022-11-25T16:13:29.953Z,12.90
2022-11-25T16:18:40.931Z,11.55
2022-11-25T16:24:05.809Z,12.68
2022-11-25T16:29:17.142Z,13.23
2022-11-25T16:34:20.916Z,13.75
2022-11-25T16:39:22.638Z,14.15
2022-11-25T16:44:26.269Z,14.50
2022-11-25T16:49:30.692Z,15.60
2022-11-25T16:54:33.810Z,14.25
2022-11-25T16:59:39.353Z,14.85
2022-11-25T17:04:41.397Z,16.75
2022-11-25T17:09:44.268Z,18.38
2022-11-25T17:19:49.663Z,16.75
2022-11-25T17:24:51.757Z,15.43
2022-11-25T17:29:55.877Z,16.67
2022-11-25T17:34:57.749Z,17.02
2022-11-25T17:39:59.712Z,14.73
2022-11-25T17:45:01.618Z,14.95
2022-11-25T17:50:22.817Z,16.17
2022-11-25T17:55:24.548Z,14.38
2022-11-25T18:00:26.641Z,15.37
2022-11-25T18:05:29.053Z,15.88
2022-11-25T18:10:30.836Z,15.77
2022-11-25T18:15:34.060Z,15.75
2022-11-25T18:20:35.855Z,16.38
2022-11-25T18:25:39.957Z,17.30
2022-11-25T18:30:41.782Z,16.10
2022-11-25T18:35:45.888Z,16.07
2022-11-25T18:40:53.286Z,17.17
2022-11-25T18:45:55.891Z,16.40
2022-11-25T18:50:57.689Z,18.85
2022-11-25T18:55:59.650Z,16.77
2022-11-25T19:01:10.486Z,16.70
2022-11-25T19:06:15.214Z,16.08
2022-11-25T19:11:30.555Z,14.50
2022-11-25T19:16:32.320Z,14.60
2022-11-25T19:21:34.754Z,14.63
2022-11-25T19:26:42.097Z,12.90
2022-11-25T19:31:44.137Z,14.25
2022-11-25T19:36:45.974Z,13.67
2022-11-25T19:41:47.722Z,15.20
2022-11-25T19:47:14.253Z,15.48
2022-11-25T19:52:15.452Z,15.32
2022-11-25T19:57:22.310Z,16.40
2022-11-25T20:02:26.379Z,16.83
2022-11-25T20:07:30.041Z,17.92
2022-11-25T20:12:32.022Z,15.60
2022-11-25T20:17:36.528Z,15.80
2022-11-25T20:22:41.988Z,16.17
2022-11-25T20:27:43.832Z,17.48
2022-11-25T20:32:45.807Z,16.63
2022-11-25T20:37:53.749Z,16.65
2022-11-25T20:42:55.579Z,18.67
2022-11-25T20:47:58.966Z,18.87
2022-11-25T20:53:00.829Z,18.63
2022-11-25T20:58:09.441Z,18.48
2022-11-25T21:03:11.366Z,17.73
2022-11-25T21:08:19.705Z,16.65
2022-11-25T21:13:23.814Z,19.50
2022-11-25T21:18:25.544Z,18.05
2022-11-25T21:23:32.006Z,16.77
2022-11-25T21:28:38.466Z,16.90
2022-11-25T21:33:40.288Z,18.25
2022-11-25T21:38:43.953Z,17.83
2022-11-25T21:43:49.267Z,16.60
2022-11-25T21:48:50.985Z,15.23
2022-11-25T21:53:55.799Z,14.32
2022-11-25T21:59:03.081Z,13.23
2022-11-25T22:04:05.016Z,11.98
2022-11-25T22:09:06.807Z,12.87
2022-11-25T22:14:27.654Z,11.68
2022-11-25T22:19:29.552Z,11.85
2022-11-25T22:24:33.290Z,11.68
2022-11-25T22:29:36.420Z,11.32
2022-11-25T22:34:38.284Z,12.02
2022-11-25T22:39:40.164Z,11.10
2022-11-25T22:44:47.624Z,11.73
2022-11-25T22:49:50.305Z,11.50
2022-11-25T22:54:52.465Z,11.07
2022-11-25T22:59:54.115Z,10.93
2022-11-25T23:04:56.445Z,10.38
2022-11-25T23:09:58.294Z,10.65
2022-11-25T23:14:59.967Z,10.57
2022-11-25T23:20:02.021Z,10.30
2022-11-25T23:25:15.909Z,10.85
2022-11-25T23:30:22.960Z,9.35
2022-11-25T23:35:36.401Z,9.60
2022-11-25T23:40:38.874Z,9.57
2022-11-25T23:45:51.256Z,9.50
2022-11-25T23:50:55.405Z,10.15
2022-11-25T23:55:57.405Z,10.00
